Time;durP1;ratioP1;P1;durP2;ratioP2;P2;SDS_P1;SDS_P2;PMS_P1;PMS_P2;Temp;Humidity;BMP_temperature;BMP_pressure;BME280_temperature;BME280_humidity;BME280_pressure;Samples;Min_cycle;Max_cycle;Signal;HPM_P1;HPM_P2
2023/05/08 00:00:09;;;;;;;;;;;;;;;30.63;76.82;100555.66;5124622;27;70594;-39
2023/05/08 00:02:41;;;;;;;;;;;;;;;30.67;76.08;100566.84;5115293;27;66572;-40
2023/05/08 00:05:11;;;;;;;;;;;;;;;30.68;76.71;100574.75;5100747;27;69950;-40
2023/05/08 00:07:41;;;;;;;;;;;;;;;30.72;77.10;100575.13;5089316;27;68626;-40
2023/05/08 00:10:12;;;;;;;;;;;;;;;30.76;76.72;100580.91;5106985;27;69135;-40
2023/05/08 00:12:42;;;;;;;;;;;;;;;30.80;76.22;100587.56;5094158;27;66708;-40
2023/05/08 00:15:13;;;;;;;;;;;;;;;30.82;76.26;100586.28;5104291;27;70165;-38
2023/05/08 00:17:43;;;;;;;;;;;;;;;30.90;78.48;100590.56;5096194;27;66756;-39
2023/05/08 00:20:14;;;;;;;;;;;;;;;30.92;76.39;100599.28;5097884;27;68252;-39
2023/05/08 00:22:44;;;;;;;;;;;;;;;30.90;76.62;100596.81;5106535;27;66665;-40
2023/05/08 00:25:14;;;;;;;;;;;;;;;30.94;76.42;100608.00;5107673;27;70014;-39
2023/05/08 00:27:44;;;;;;;;;;;;;;;30.96;76.68;100608.63;5111616;27;66529;-40
2023/05/08 00:30:14;;;;;;;;;;;;;;;31.00;75.77;100615.22;5107718;27;69210;-40
2023/05/08 00:32:45;;;;;;;;;;;;;;;31.04;77.54;100629.16;5094075;27;67036;-40
2023/05/08 00:35:16;;;;;;;;;;;;;;;31.09;78.42;100635.53;5093295;27;69112;-39
2023/05/08 00:37:46;;;;;;;;;;;;;;;31.19;78.73;100645.00;5093862;27;66037;-39
2023/05/08 00:40:17;;;;;;;;;;;;;;;31.16;75.77;100647.09;5103349;27;69797;-40
2023/05/08 00:42:47;;;;;;;;;;;;;;;31.16;75.76;100647.09;5098398;27;66821;-40
2023/05/08 00:45:17;;;;;;;;;;;;;;;31.17;74.77;100648.78;5100549;27;70162;-40
2023/05/08 00:47:47;;;;;;;;;;;;;;;31.20;74.01;100660.19;5121347;27;66880;-40
2023/05/08 00:50:18;;;;;;;;;;;;;;;31.21;73.93;100659.16;5116654;27;69792;-39
2023/05/08 00:52:49;;;;;;;;;;;;;;;31.23;73.28;100668.72;5118759;27;66981;-40
2023/05/08 00:55:20;;;;;;;;;;;;;;;31.24;73.60;100664.13;5118317;27;70272;-40
2023/05/08 00:57:51;;;;;;;;;;;;;;;31.26;72.83;100668.25;5118806;27;66349;-40
2023/05/08 01:00:22;;;;;;;;;;;;;;;31.27;72.77;100664.50;5116305;27;69891;-39
2023/05/08 01:02:52;;;;;;;;;;;;;;;31.29;72.60;100667.81;5118687;27;66950;-41
2023/05/08 01:05:22;;;;;;;;;;;;;;;31.32;72.08;100669.22;5119318;27;68653;-38
2023/05/08 01:07:53;;;;;;;;;;;;;;;31.32;71.63;100671.94;5123876;27;66770;-39
2023/05/08 01:10:25;;;;;;;;;;;;;;;31.35;71.40;100679.63;5136239;27;69800;-39
2023/05/08 01:13:01;;;;;;;;;;;;;;;31.35;71.40;100679.63;5112045;27;65950;-41
2023/05/08 01:15:39;;;;;;;;;;;;;;;31.36;71.47;100681.28;5136052;27;69727;-40
2023/05/08 01:18:09;;;;;;;;;;;;;;;31.38;71.74;100688.13;5136394;27;67025;-39
2023/05/08 01:20:52;;;;;;;;;;;;;;;31.39;70.93;100689.78;5139542;27;70331;-42
2023/05/08 01:23:47;;;;;;;;;;;;;;;31.41;70.56;100686.84;5137806;27;66702;-38
2023/05/08 01:26:34;;;;;;;;;;;;;;;31.44;70.65;100702.66;5119667;27;70196;-41
2023/05/08 01:29:23;;;;;;;;;;;;;;;31.46;70.89;100705.97;5125006;27;65977;-39
2023/05/08 01:32:05;;;;;;;;;;;;;;;31.49;70.21;100710.94;5140768;27;70400;-40
2023/05/08 01:34:37;;;;;;;;;;;;;;;31.51;70.82;100714.25;5121664;27;65904;-41
2023/05/08 01:37:10;;;;;;;;;;;;;;;31.51;69.89;100716.13;5116313;27;70016;-41
2023/05/08 01:39:46;;;;;;;;;;;;;;;31.54;70.59;100718.41;5117966;27;66193;-40
2023/05/08 01:42:33;;;;;;;;;;;;;;;31.54;69.91;100719.22;5135895;27;69246;-40
2023/05/08 01:45:06;;;;;;;;;;;;;;;31.56;69.70;100716.25;5119683;27;66890;-40
2023/05/08 01:47:37;;;;;;;;;;;;;;;31.58;69.87;100736.66;5137634;27;70423;-40
2023/05/08 01:50:12;;;;;;;;;;;;;;;31.61;70.01;100741.63;5118335;27;66657;-41
2023/05/08 01:52:49;;;;;;;;;;;;;;;31.64;70.17;100736.81;5119784;27;70274;-43
2023/05/08 01:55:23;;;;;;;;;;;;;;;31.64;69.98;100744.94;5140843;27;66820;-40
2023/05/08 01:57:57;;;;;;;;;;;;;;;31.68;70.10;100751.56;5119236;27;69858;-40
2023/05/08 02:00:27;;;;;;;;;;;;;;;31.68;69.31;100751.56;5120206;27;66498;-39
2023/05/08 02:02:59;;;;;;;;;;;;;;;31.71;69.46;100753.84;5126855;27;70063;-41
2023/05/08 02:05:30;;;;;;;;;;;;;;;31.72;69.19;100741.94;5102183;27;67000;-39
2023/05/08 02:08:01;;;;;;;;;;;;;;;31.73;69.18;100749.84;5132779;27;70625;-39
2023/05/08 02:10:32;;;;;;;;;;;;;;;31.75;69.01;100746.88;5120603;27;66717;-41
2023/05/08 02:13:03;;;;;;;;;;;;;;;31.78;68.91;100757.28;5135889;27;71414;-40
2023/05/08 02:15:35;;;;;;;;;;;;;;;31.79;68.86;100748.09;5137888;27;66801;-41
2023/05/08 02:18:07;;;;;;;;;;;;;;;31.81;68.86;100754.09;5124722;27;70454;-40
2023/05/08 02:20:38;;;;;;;;;;;;;;;31.82;68.56;100753.06;5134377;27;65775;-40
2023/05/08 02:23:09;;;;;;;;;;;;;;;31.84;68.39;100750.91;5116655;27;70099;-40
2023/05/08 02:25:39;;;;;;;;;;;;;;;31.86;68.13;100756.94;5131960;27;66136;-40
2023/05/08 02:28:10;;;;;;;;;;;;;;;31.87;67.99;100761.31;5076694;27;70461;-41
2023/05/08 02:30:41;;;;;;;;;;;;;;;31.90;68.56;100754.59;5131059;27;66244;-42
2023/05/08 02:33:16;;;;;;;;;;;;;;;31.91;67.92;100762.56;5130498;27;69788;-44
2023/05/08 02:35:58;;;;;;;;;;;;;;;31.93;67.72;100756.88;5138569;27;66113;-40
2023/05/08 02:38:29;;;;;;;;;;;;;;;31.94;67.69;100751.25;5136737;27;70587;-41
2023/05/08 02:41:02;;;;;;;;;;;;;;;31.93;67.33;100738.75;5130182;27;66399;-40
2023/05/08 02:43:32;;;;;;;;;;;;;;;31.95;67.33;100746.63;5117020;27;69696;-42
2023/05/08 02:46:14;;;;;;;;;;;;;;;31.96;67.52;100742.88;5118297;27;66182;-39
2023/05/08 02:48:58;;;;;;;;;;;;;;;31.97;67.26;100745.34;5118394;27;70217;-43
2023/05/08 02:51:38;;;;;;;;;;;;;;;32.00;66.96;100744.06;5116473;27;65376;-40
2023/05/08 02:54:25;;;;;;;;;;;;;;;32.01;67.16;100748.41;5108124;27;69998;-44
2023/05/08 02:57:02;;;;;;;;;;;;;;;32.03;66.89;100747.13;5130890;27;66578;-42
2023/05/08 02:59:38;;;;;;;;;;;;;;;32.04;66.83;100745.28;5129873;27;69801;-39
2023/05/08 03:02:24;;;;;;;;;;;;;;;32.07;66.70;100739.38;5106065;27;66473;-41
2023/05/08 03:04:59;;;;;;;;;;;;;;;32.11;66.65;100739.72;5128998;27;70661;-40
2023/05/08 03:07:30;;;;;;;;;;;;;;;32.13;66.54;100740.34;5130388;27;65921;-39
2023/05/08 03:10:03;;;;;;;;;;;;;;;32.15;66.51;100733.63;5124522;27;70290;-39
2023/05/08 03:12:36;;;;;;;;;;;;;;;32.17;66.57;100714.38;5107046;27;66475;-40
2023/05/08 03:15:13;;;;;;;;;;;;;;;32.19;66.19;100712.25;5106607;27;70324;-40
2023/05/08 03:17:45;;;;;;;;;;;;;;;32.20;66.28;100705.75;5129304;27;67280;-39
2023/05/08 03:20:17;;;;;;;;;;;;;;;32.24;66.04;100712.38;5127581;27;69348;-41
2023/05/08 03:22:48;;;;;;;;;;;;;;;32.23;65.66;100700.72;5118140;27;66657;-41
2023/05/08 03:25:19;;;;;;;;;;;;;;;32.24;65.77;100699.63;5111979;27;69581;-39
2023/05/08 03:27:51;;;;;;;;;;;;;;;32.26;65.80;100688.53;5126125;27;66271;-40
2023/05/08 03:30:23;;;;;;;;;;;;;;;32.27;65.51;100690.19;5097641;27;69843;-41
2023/05/08 03:33:06;;;;;;;;;;;;;;;32.28;65.57;100681.00;5095127;27;66362;-40
2023/05/08 03:35:38;;;;;;;;;;;;;;;32.29;65.77;100682.66;5126356;27;69701;-41
2023/05/08 03:38:09;;;;;;;;;;;;;;;32.30;65.72;100694.34;5102635;27;66570;-40
2023/05/08 03:40:43;;;;;;;;;;;;;;;32.31;65.43;100691.38;5105171;27;70421;-40
2023/05/08 03:43:14;;;;;;;;;;;;;;;32.31;65.60;100691.38;5101495;27;66839;-40
2023/05/08 03:45:45;;;;;;;;;;;;;;;32.31;65.24;100688.66;5122203;27;70521;-41
2023/05/08 03:48:17;;;;;;;;;;;;;;;32.33;65.21;100696.59;5094946;27;65740;-40
2023/05/08 03:50:48;;;;;;;;;;;;;;;32.34;65.20;100706.38;5124015;27;67676;-41
2023/05/08 03:53:18;;;;;;;;;;;;;;;32.35;65.02;100713.47;5123505;27;66180;-40
2023/05/08 03:55:49;;;;;;;;;;;;;;;32.35;65.01;100708.88;5126173;27;70453;-44
2023/05/08 03:58:42;;;;;;;;;;;;;;;32.36;64.89;100710.50;5101670;27;66881;-40
2023/05/08 04:01:39;;;;;;;;;;;;;;;32.35;65.16;100713.47;5105926;27;69824;-42
2023/05/08 04:04:23;;;;;;;;;;;;;;;32.35;65.04;100708.88;5113378;27;65242;-42
2023/05/08 04:07:03;;;;;;;;;;;;;;;32.36;64.80;100704.25;5105296;27;69865;-41
2023/05/08 04:09:43;;;;;;;;;;;;;;;32.35;64.95;100698.00;5105396;27;65537;-40
2023/05/08 04:12:13;;;;;;;;;;;;;;;32.35;64.64;100681.72;5109094;27;69731;-40
2023/05/08 04:14:47;;;;;;;;;;;;;;;32.36;64.70;100672.50;5103072;27;66407;-41
2023/05/08 04:17:22;;;;;;;;;;;;;;;32.37;64.95;100668.72;5105366;27;70486;-42
2023/05/08 04:20:02;;;;;;;;;;;;;;;32.36;64.83;100661.63;5101398;27;66028;-40
2023/05/08 04:22:34;;;;;;;;;;;;;;;32.37;64.95;100663.28;5110140;27;70274;-41
2023/05/08 04:25:06;;;;;;;;;;;;;;;32.39;64.84;100666.59;5110115;27;66224;-43
2023/05/08 04:27:37;;;;;;;;;;;;;;;32.42;64.64;100659.88;5074854;27;68251;-42
2023/05/08 04:30:08;;;;;;;;;;;;;;;32.44;64.59;100655.84;5109181;27;66372;-42
2023/05/08 04:32:40;;;;;;;;;;;;;;;32.47;64.44;100647.28;5116856;27;70781;-41
2023/05/08 04:35:15;;;;;;;;;;;;;;;32.49;64.40;100645.16;5105264;27;66653;-42
2023/05/08 04:37:47;;;;;;;;;;;;;;;32.53;64.29;100644.69;5100120;27;70711;-42
2023/05/08 04:40:19;;;;;;;;;;;;;;;32.55;64.40;100637.13;5105861;27;66715;-40
2023/05/08 04:42:49;;;;;;;;;;;;;;;32.57;64.29;100634.97;5108716;27;69889;-40
2023/05/08 04:45:21;;;;;;;;;;;;;;;32.59;64.15;100633.69;5111358;27;66747;-41
2023/05/08 04:47:51;;;;;;;;;;;;;;;32.61;64.00;100628.03;5069259;27;69486;-41
2023/05/08 04:50:21;;;;;;;;;;;;;;;32.64;64.08;100613.97;5098398;27;66413;-41
2023/05/08 04:52:52;;;;;;;;;;;;;;;32.65;63.76;100604.75;5114695;27;69784;-40
2023/05/08 04:55:22;;;;;;;;;;;;;;;32.66;63.87;100590.13;5095982;27;66667;-41
2023/05/08 04:57:53;;;;;;;;;;;;;;;32.68;63.68;100582.53;5103063;27;69227;-41
2023/05/08 05:00:23;;;;;;;;;;;;;;;32.68;63.74;100582.53;5129672;27;65460;-41
2023/05/08 05:02:53;;;;;;;;;;;;;;;32.69;63.51;100584.19;5108159;27;70372;-42
2023/05/08 05:05:23;;;;;;;;;;;;;;;32.69;63.47;100573.34;5121267;27;66102;-40
2023/05/08 05:07:53;;;;;;;;;;;;;;;32.69;63.20;100557.03;5088316;27;67318;-40
2023/05/08 05:10:23;;;;;;;;;;;;;;;32.71;63.11;100554.91;5101556;27;66611;-42
2023/05/08 05:12:53;;;;;;;;;;;;;;;32.72;62.97;100545.69;5112489;27;70495;-40
2023/05/08 05:15:23;;;;;;;;;;;;;;;32.75;62.70;100538.97;5114027;27;66264;-42
2023/05/08 05:17:53;;;;;;;;;;;;;;;32.76;62.81;100541.41;5125148;27;70339;-43
2023/05/08 05:20:23;;;;;;;;;;;;;;;32.77;62.59;100534.94;5114044;27;66808;-43
2023/05/08 05:22:53;;;;;;;;;;;;;;;32.79;62.66;100527.38;5098704;27;70286;-43
2023/05/08 05:25:24;;;;;;;;;;;;;;;32.81;62.42;100517.06;5104370;27;66178;-43
2023/05/08 05:27:54;;;;;;;;;;;;;;;32.82;62.37;100507.88;5098023;27;70444;-41
2023/05/08 05:30:25;;;;;;;;;;;;;;;32.84;62.29;100491.31;5101224;27;66689;-41
2023/05/08 05:32:55;;;;;;;;;;;;;;;32.86;62.19;100490.00;5116691;27;68779;-42
2023/05/08 05:35:25;;;;;;;;;;;;;;;32.88;62.29;100479.75;5104142;27;66185;-41
2023/05/08 05:37:57;;;;;;;;;;;;;;;32.91;62.12;100478.44;5104337;27;70336;-40
2023/05/08 05:40:27;;;;;;;;;;;;;;;32.93;61.96;100471.69;5107487;27;66251;-42
2023/05/08 05:42:56;;;;;;;;;;;;;;;32.94;62.11;100467.88;5120933;27;70348;-41
2023/05/08 05:45:26;;;;;;;;;;;;;;;32.97;61.94;100463.03;5105938;27;65388;-40
2023/05/08 05:47:58;;;;;;;;;;;;;;;32.99;61.87;100455.44;5103145;27;69275;-41
2023/05/08 05:50:30;;;;;;;;;;;;;;;33.02;61.77;100446.88;5103742;27;66821;-42
2023/05/08 05:53:00;;;;;;;;;;;;;;;33.05;62.04;100457.25;5103071;27;69335;-40
2023/05/08 05:55:30;;;;;;;;;;;;;;;33.06;61.89;100446.09;5109085;27;65504;-41
2023/05/08 05:58:00;;;;;;;;;;;;;;;33.10;61.94;100443.75;5115228;27;68899;-42
2023/05/08 06:00:31;;;;;;;;;;;;;;;33.12;61.91;100447.84;5107231;27;64980;-40
2023/05/08 06:03:01;;;;;;;;;;;;;;;33.15;61.85;100427.50;5107206;27;69803;-40
2023/05/08 06:05:31;;;;;;;;;;;;;;;33.18;61.86;100424.28;5132898;27;65126;-39
2023/05/08 06:08:02;;;;;;;;;;;;;;;33.22;61.87;100420.03;5124431;27;70295;-41
2023/05/08 06:10:32;;;;;;;;;;;;;;;33.25;61.37;100422.25;5117596;27;65903;-40
2023/05/08 06:13:01;;;;;;;;;;;;;;;33.30;61.66;100426.94;5101409;27;69816;-41
2023/05/08 06:15:33;;;;;;;;;;;;;;;33.33;61.88;100431.88;5119334;27;66295;-42
2023/05/08 06:18:04;;;;;;;;;;;;;;;33.36;61.63;100434.09;5103909;27;69610;-40
2023/05/08 06:20:34;;;;;;;;;;;;;;;33.39;61.96;100436.31;5122615;27;66951;-40
2023/05/08 06:23:04;;;;;;;;;;;;;;;33.44;61.58;100443.75;5124401;27;69731;-40
2023/05/08 06:25:34;;;;;;;;;;;;;;;33.46;61.49;100447.88;5123486;27;66910;-41
2023/05/08 06:28:05;;;;;;;;;;;;;;;33.51;61.70;100460.69;5127280;27;69409;-40
2023/05/08 06:30:35;;;;;;;;;;;;;;;33.54;61.81;100438.47;5126225;27;66369;-40
2023/05/08 06:33:05;;;;;;;;;;;;;;;33.57;61.39;100443.41;5123096;27;70292;-40
2023/05/08 06:35:35;;;;;;;;;;;;;;;33.59;61.23;100438.56;5103464;27;66031;-40
2023/05/08 06:38:05;;;;;;;;;;;;;;;33.63;61.09;100437.00;5129202;27;70288;-40
2023/05/08 06:40:35;;;;;;;;;;;;;;;33.67;61.04;100421.00;5120940;27;65579;-40
2023/05/08 06:43:04;;;;;;;;;;;;;;;33.70;60.87;100437.63;5134267;27;69502;-41
2023/05/08 06:45:34;;;;;;;;;;;;;;;33.75;60.74;100440.41;5125755;27;66539;-40
2023/05/08 06:48:04;;;;;;;;;;;;;;;33.79;60.47;100447.03;5126040;27;71657;-41
2023/05/08 06:50:38;;;;;;;;;;;;;;;33.85;60.18;100438.91;5121358;27;66918;-41
2023/05/08 06:53:08;;;;;;;;;;;;;;;33.88;60.40;100438.41;5122084;27;70172;-40
2023/05/08 06:55:38;;;;;;;;;;;;;;;33.91;60.44;100440.66;5126016;27;66972;-40
2023/05/08 06:58:07;;;;;;;;;;;;;;;33.96;60.20;100421.66;5126320;27;69580;-41
2023/05/08 07:00:37;;;;;;;;;;;;;;;33.98;59.94;100417.59;5122261;27;66655;-42
2023/05/08 07:03:07;;;;;;;;;;;;;;;34.02;59.83;100418.75;5119815;27;70954;-41
2023/05/08 07:05:37;;;;;;;;;;;;;;;34.06;59.63;100418.28;5122408;27;65623;-41
2023/05/08 07:08:07;;;;;;;;;;;;;;;34.09;59.51;100418.59;5115374;27;70633;-41
2023/05/08 07:10:37;;;;;;;;;;;;;;;34.12;59.30;100395.47;5127330;27;67094;-41
2023/05/08 07:13:06;;;;;;;;;;;;;;;34.14;59.29;100402.31;5090891;27;69754;-41
2023/05/08 07:15:37;;;;;;;;;;;;;;;34.19;58.92;100396.13;5127772;27;66657;-43
2023/05/08 07:18:07;;;;;;;;;;;;;;;34.21;59.15;100389.34;5115736;27;71256;-40
2023/05/08 07:20:37;;;;;;;;;;;;;;;34.24;58.85;100380.66;5130085;27;66269;-42
2023/05/08 07:23:07;;;;;;;;;;;;;;;34.27;58.95;100371.16;5121721;27;69302;-41
2023/05/08 07:25:36;;;;;;;;;;;;;;;34.30;58.85;100369.81;5137992;27;65928;-39
2023/05/08 07:28:07;;;;;;;;;;;;;;;34.31;58.49;100355.97;5128284;27;70030;-41
2023/05/08 07:30:37;;;;;;;;;;;;;;;34.36;58.62;100355.19;5134005;27;66655;-40
2023/05/08 07:33:07;;;;;;;;;;;;;;;34.36;58.42;100357.91;5129921;27;69552;-40
2023/05/08 07:35:40;;;;;;;;;;;;;;;34.39;58.35;100362.84;5122650;27;66629;-41
2023/05/08 07:38:10;;;;;;;;;;;;;;;34.40;58.00;100359.03;5125756;27;70355;-40
2023/05/08 07:40:41;;;;;;;;;;;;;;;34.42;58.27;100357.69;5121776;27;66665;-42
2023/05/08 07:43:12;;;;;;;;;;;;;;;34.44;58.09;100343.84;5128183;27;69496;-41
2023/05/08 07:45:42;;;;;;;;;;;;;;;34.46;58.09;100345.22;5126437;27;65547;-39
2023/05/08 07:48:12;;;;;;;;;;;;;;;34.47;57.85;100337.88;5125356;27;69133;-40
2023/05/08 07:50:43;;;;;;;;;;;;;;;34.48;57.89;100331.34;5117123;27;66833;-42
2023/05/08 07:53:13;;;;;;;;;;;;;;;34.49;57.81;100335.69;5119312;27;70303;-39
2023/05/08 07:55:43;;;;;;;;;;;;;;;34.51;57.87;100338.19;5126384;27;66580;-41
2023/05/08 07:58:14;;;;;;;;;;;;;;;34.50;57.90;100342.81;5133251;27;69072;-42
2023/05/08 08:00:44;;;;;;;;;;;;;;;34.52;57.22;100357.00;5120676;27;66116;-39
2023/05/08 08:03:14;;;;;;;;;;;;;;;34.52;57.68;100365.16;5123899;27;69828;-39
2023/05/08 08:05:45;;;;;;;;;;;;;;;34.53;57.38;100358.63;5129202;27;65452;-41
2023/05/08 08:08:15;;;;;;;;;;;;;;;34.54;57.54;100354.00;5122553;27;69961;-40
2023/05/08 08:10:45;;;;;;;;;;;;;;;34.54;57.21;100371.16;5133138;27;65394;-41
2023/05/08 08:13:16;;;;;;;;;;;;;;;34.53;56.86;100372.25;5119293;27;69795;-41
2023/05/08 08:15:46;;;;;;;;;;;;;;;34.56;57.24;100392.72;5123369;27;65524;-42
2023/05/08 08:18:15;;;;;;;;;;;;;;;34.54;56.80;100392.13;5121326;27;69794;-41
2023/05/08 08:20:46;;;;;;;;;;;;;;;34.53;56.69;100369.53;5125097;27;66799;-41
2023/05/08 08:23:16;;;;;;;;;;;;;;;34.54;56.79;100354.81;5112446;27;69014;-40
2023/05/08 08:25:46;;;;;;;;;;;;;;;34.54;56.82;100360.25;5127831;27;67181;-40
2023/05/08 08:28:16;;;;;;;;;;;;;;;34.52;57.10;100373.34;5125021;27;69715;-41
2023/05/08 08:30:46;;;;;;;;;;;;;;;34.53;56.74;100391.31;5135693;27;65589;-41
2023/05/08 08:33:16;;;;;;;;;;;;;;;34.53;56.74;100401.38;5122456;27;69604;-39
2023/05/08 08:35:46;;;;;;;;;;;;;;;34.52;57.19;100406.03;5109015;27;66571;-40
2023/05/08 08:38:16;;;;;;;;;;;;;;;34.51;56.85;100396.19;5123634;27;69679;-40
2023/05/08 08:40:46;;;;;;;;;;;;;;;34.50;57.00;100391.81;5129196;27;65972;-40
2023/05/08 08:43:17;;;;;;;;;;;;;;;34.50;56.63;100380.13;5131573;27;70125;-42
2023/05/08 08:45:47;;;;;;;;;;;;;;;34.50;56.63;100386.38;5120923;27;66353;-41
2023/05/08 08:48:18;;;;;;;;;;;;;;;34.48;56.99;100396.69;5127193;27;70317;-41
2023/05/08 08:50:50;;;;;;;;;;;;;;;34.48;56.78;100410.31;5120679;27;64799;-40
2023/05/08 08:53:31;;;;;;;;;;;;;;;34.47;57.21;100417.66;5126767;27;70169;-41
2023/05/08 08:56:02;;;;;;;;;;;;;;;34.46;57.00;100407.03;5118597;27;65950;-40
2023/05/08 08:58:36;;;;;;;;;;;;;;;34.44;56.73;100398.31;5120129;27;70065;-41
2023/05/08 09:01:07;;;;;;;;;;;;;;;34.43;56.90;100389.28;5119500;27;65716;-40
2023/05/08 09:03:37;;;;;;;;;;;;;;;34.43;57.24;100391.19;5120870;27;70638;-42
2023/05/08 09:06:07;;;;;;;;;;;;;;;34.41;57.14;100442.38;5088752;27;66196;-40
2023/05/08 09:08:37;;;;;;;;;;;;;;;34.41;56.86;100505.03;5081150;27;69106;-40
2023/05/08 09:11:08;;;;;;;;;;;;;;;34.37;58.42;100550.16;5078695;27;66009;-40
2023/05/08 09:13:37;;;;;;;;;;;;;;;34.26;59.12;100555.44;5077112;27;69693;-41
2023/05/08 09:16:07;;;;;;;;;;;;;;;34.16;59.81;100555.31;5077751;27;67337;-43
2023/05/08 09:18:37;;;;;;;;;;;;;;;34.10;60.27;100531.00;5074718;28;70757;-41
2023/05/08 09:21:07;;;;;;;;;;;;;;;34.05;60.50;100529.03;5080889;27;65178;-41
2023/05/08 09:23:53;;;;;;;;;;;;;;;34.02;61.20;100545.84;5083838;27;69884;-40
2023/05/08 09:26:26;;;;;;;;;;;;;;;34.01;61.02;100546.91;5072865;27;66233;-40
2023/05/08 09:29:25;;;;;;;;;;;;;;;33.96;62.30;100560.44;5074301;27;70518;-42
2023/05/08 09:31:55;;;;;;;;;;;;;;;34.01;62.62;100555.06;5072369;27;66966;-40
2023/05/08 09:34:27;;;;;;;;;;;;;;;34.06;62.57;100555.16;5078947;27;70047;-41
2023/05/08 09:37:05;;;;;;;;;;;;;;;34.09;62.23;100548.41;5079325;27;67475;-41
2023/05/08 09:39:35;;;;;;;;;;;;;;;34.14;62.15;100556.66;5083484;27;69905;-42
2023/05/08 09:42:05;;;;;;;;;;;;;;;34.18;61.91;100555.88;5078869;27;65567;-43
2023/05/08 09:44:45;;;;;;;;;;;;;;;34.18;61.92;100555.88;5077998;27;69906;-42
2023/05/08 09:47:16;;;;;;;;;;;;;;;34.17;61.12;100567.03;5075849;27;66724;-39
2023/05/08 09:50:04;;;;;;;;;;;;;;;34.10;61.85;100571.81;5077688;27;70073;-42
2023/05/08 09:52:35;;;;;;;;;;;;;;;34.02;61.79;100554.00;5075194;27;65728;-40
2023/05/08 09:55:07;;;;;;;;;;;;;;;33.94;62.36;100540.81;5079102;27;70283;-43
2023/05/08 09:57:38;;;;;;;;;;;;;;;33.86;62.50;100523.00;5084741;27;65800;-43
2023/05/08 10:00:09;;;;;;;;;;;;;;;33.84;62.37;100513.44;5078037;28;70259;-43
2023/05/08 10:02:40;;;;;;;;;;;;;;;33.77;62.41;100509.00;5074638;27;66356;-39
2023/05/08 10:05:31;;;;;;;;;;;;;;;33.73;63.21;100496.97;5086484;27;69314;-40
2023/05/08 10:08:19;;;;;;;;;;;;;;;33.67;63.34;100495.25;5122623;27;66452;-40
2023/05/08 10:10:49;;;;;;;;;;;;;;;33.63;63.19;100491.38;5117310;27;69881;-42
2023/05/08 10:13:20;;;;;;;;;;;;;;;33.41;63.69;100457.84;5098791;27;67364;-41
2023/05/08 10:15:53;;;;;;;;;;;;;;;33.58;63.95;100488.59;5122346;27;69601;-42
2023/05/08 10:18:24;;;;;;;;;;;;;;;33.54;64.21;100487.41;5121710;27;66327;-40
2023/05/08 10:20:55;;;;;;;;;;;;;;;33.54;64.21;100480.13;5115530;27;69365;-41
2023/05/08 10:23:25;;;;;;;;;;;;;;;33.54;64.81;100476.53;5121404;27;66016;-41
2023/05/08 10:25:59;;;;;;;;;;;;;;;33.54;64.67;100471.09;5121443;27;70200;-41
2023/05/08 10:28:56;;;;;;;;;;;;;;;33.51;64.63;100471.56;5115977;27;66404;-40
2023/05/08 10:31:30;;;;;;;;;;;;;;;33.52;64.34;100479.53;5117458;27;69956;-42
2023/05/08 10:34:01;;;;;;;;;;;;;;;33.50;64.95;100488.97;5117477;27;66828;-42
2023/05/08 10:36:35;;;;;;;;;;;;;;;33.46;65.54;100490.53;5123836;27;69550;-42
2023/05/08 10:39:05;;;;;;;;;;;;;;;33.46;65.92;100482.38;5117230;27;65208;-40
2023/05/08 10:41:35;;;;;;;;;;;;;;;33.43;65.74;100491.84;5127422;27;69808;-43
2023/05/08 10:44:06;;;;;;;;;;;;;;;33.42;65.90;100500.25;5123400;27;66964;-45
2023/05/08 10:46:52;;;;;;;;;;;;;;;33.34;66.08;100493.31;5121179;27;69635;-43
2023/05/08 10:49:29;;;;;;;;;;;;;;;33.33;66.74;100497.94;5119268;27;66853;-43
2023/05/08 10:52:09;;;;;;;;;;;;;;;33.27;65.75;100501.66;5116071;27;70047;-44
2023/05/08 10:55:05;;;;;;;;;;;;;;;33.29;65.51;100513.13;5126787;27;67008;-44
2023/05/08 10:57:35;;;;;;;;;;;;;;;33.29;65.50;100507.69;5116530;27;70284;-45
2023/05/08 11:00:05;;;;;;;;;;;;;;;33.31;64.83;100519.09;5129046;27;65943;-43
2023/05/08 11:02:37;;;;;;;;;;;;;;;33.32;64.64;100520.78;5112923;27;69444;-42
2023/05/08 11:05:16;;;;;;;;;;;;;;;33.31;64.52;100527.25;5122768;27;66494;-42
2023/05/08 11:07:54;;;;;;;;;;;;;;;33.31;64.49;100532.69;5125057;27;70633;-43
2023/05/08 11:10:31;;;;;;;;;;;;;;;33.30;64.23;100541.94;5116988;27;66732;-43
2023/05/08 11:13:01;;;;;;;;;;;;;;;33.31;64.36;100545.47;5123195;27;69191;-43
2023/05/08 11:15:38;;;;;;;;;;;;;;;33.31;64.40;100554.44;5122810;27;66026;-42
2023/05/08 11:18:10;;;;;;;;;;;;;;;33.31;64.06;100554.44;5104211;27;69914;-45
2023/05/08 11:20:40;;;;;;;;;;;;;;;33.30;64.01;100550.09;5122116;27;66104;-43
2023/05/08 11:23:26;;;;;;;;;;;;;;;33.27;64.07;100545.16;5127984;27;69910;-43
2023/05/08 11:26:01;;;;;;;;;;;;;;;33.27;63.85;100545.16;5125468;27;65699;-42
2023/05/08 11:28:32;;;;;;;;;;;;;;;33.27;64.07;100553.31;5128366;27;68812;-43
2023/05/08 11:31:03;;;;;;;;;;;;;;;33.26;63.89;100564.41;5128622;27;67489;-42
2023/05/08 11:33:36;;;;;;;;;;;;;;;33.24;63.63;100586.41;5120518;27;71288;-45
2023/05/08 11:36:24;;;;;;;;;;;;;;;33.23;63.93;100579.31;5124374;27;67082;-45
2023/05/08 11:39:08;;;;;;;;;;;;;;;33.20;63.28;100582.50;5118815;27;70610;-46
2023/05/08 11:41:40;;;;;;;;;;;;;;;33.21;63.48;100591.50;5131053;27;66720;-42
2023/05/08 11:44:19;;;;;;;;;;;;;;;33.19;63.01;100594.47;5121485;27;69475;-42
2023/05/08 11:46:52;;;;;;;;;;;;;;;33.21;63.51;100596.91;5119221;27;66327;-44
2023/05/08 11:49:23;;;;;;;;;;;;;;;33.22;63.41;100599.41;5122039;27;69336;-44
2023/05/08 11:51:57;;;;;;;;;;;;;;;33.20;63.34;100606.97;5095215;27;65713;-43
2023/05/08 11:54:29;;;;;;;;;;;;;;;33.22;62.76;100615.72;5121030;27;70490;-44
2023/05/08 11:57:00;;;;;;;;;;;;;;;33.19;63.11;100604.50;5098490;27;66697;-43
2023/05/08 11:59:35;;;;;;;;;;;;;;;33.21;63.29;100619.53;5120951;27;70945;-45
2023/05/08 12:02:06;;;;;;;;;;;;;;;33.21;62.99;100624.94;5116390;27;65888;-43
2023/05/08 12:04:44;;;;;;;;;;;;;;;33.21;63.31;100624.09;5101417;27;70378;-43
2023/05/08 12:07:15;;;;;;;;;;;;;;;33.20;63.42;100617.84;5075752;27;66568;-43
2023/05/08 12:09:45;;;;;;;;;;;;;;;33.18;63.43;100624.59;5084088;27;70226;-44
2023/05/08 12:12:15;;;;;;;;;;;;;;;33.13;63.76;100617.19;5081287;27;66596;-43
2023/05/08 12:14:48;;;;;;;;;;;;;;;33.12;63.54;100616.34;5064454;28;69982;-43
2023/05/08 12:17:18;;;;;;;;;;;;;;;33.11;63.83;100606.53;5083811;27;66181;-44
2023/05/08 12:19:53;;;;;;;;;;;;;;;33.12;63.48;100604.63;5091593;27;70168;-43
2023/05/08 12:22:23;;;;;;;;;;;;;;;33.08;64.17;100604.31;5083232;27;66438;-42
2023/05/08 12:24:53;;;;;;;;;;;;;;;33.03;64.39;100606.94;5076580;27;69214;-42
2023/05/08 12:27:24;;;;;;;;;;;;;;;32.91;64.35;100598.78;5081855;27;66613;-43
2023/05/08 12:29:53;;;;;;;;;;;;;;;32.84;64.37;100606.22;5080358;28;70392;-43
2023/05/08 12:32:23;;;;;;;;;;;;;;;32.79;64.47;100606.16;5083118;27;64646;-45
2023/05/08 12:34:56;;;;;;;;;;;;;;;32.71;64.97;100603.81;5078289;27;70427;-44
2023/05/08 12:37:26;;;;;;;;;;;;;;;32.72;64.80;100611.69;5083610;27;67167;-43
2023/05/08 12:39:56;;;;;;;;;;;;;;;32.67;64.97;100618.91;5081170;27;69931;-43
2023/05/08 12:42:42;;;;;;;;;;;;;;;32.65;65.13;100626.47;5081487;27;65808;-43
2023/05/08 12:45:22;;;;;;;;;;;;;;;32.63;64.83;100628.63;5075408;27;69333;-44
2023/05/08 12:47:52;;;;;;;;;;;;;;;32.65;65.00;100621.03;5080223;27;66259;-41
2023/05/08 12:50:24;;;;;;;;;;;;;;;32.59;65.71;100619.28;5084951;27;69854;-42
2023/05/08 12:53:00;;;;;;;;;;;;;;;32.60;65.81;100624.47;5082468;27;66346;-43
2023/05/08 12:55:31;;;;;;;;;;;;;;;32.61;65.68;100630.75;5082686;27;70201;-42
2023/05/08 12:58:02;;;;;;;;;;;;;;;32.56;65.67;100630.63;5079912;27;66299;-44
2023/05/08 13:00:39;;;;;;;;;;;;;;;32.56;65.46;100628.72;5082373;27;70497;-45
2023/05/08 13:03:11;;;;;;;;;;;;;;;32.51;65.03;100625.06;5078836;28;66130;-46